Flight Track Log - Related Links

Times and Time Zones

All times are in EDT time to prevent confusion due to time zone crossing. See the SWA706 flight status page for this flight to view local times or setup timezone preferences in your user account.

Time Position Orientation Groundspeed Altitude Reporting Facility
EDT Latitude Longitude Course Direction KTS MPH feet Rate Location/Type
18:34 45.6194 -122.6803 292° West 214 246 3,900  Level Seattle Center
18:35 45.6400 -122.7397 296° West 228 262 6,100 2,202 Climbing Seattle Center
18:36 45.5869 -122.7672 200° South 265 305 7,900 1,440 Climbing Seattle Center
18:37 45.5458 -122.6750 122° Southeast 287 330 9,100 1,488 Climbing Seattle Center
18:38 45.5039 -122.5708 120° Southeast 296 341 11,000 2,656 Climbing Seattle Center
18:39 45.4586 -122.4592 120° Southeast 311 358 14,500 3,492 Climbing Seattle Center
18:40 45.4056 -122.3336 121° Southeast 349 402 18,100 3,246 Climbing Seattle Center
18:41 45.3519 -122.2056 121° Southeast 373 429 21,100 2,852 Climbing Seattle Center
18:42 45.2939 -122.0708 121° Southeast 393 452 23,900 2,529 Climbing Seattle Center
18:43 45.2406 -121.9239 117° Southeast 420 483 26,200 2,281 Climbing Seattle Center
18:44 45.2011 -121.7661 109° East 435 501 28,500 2,066 Climbing Seattle Center
18:45 45.1594 -121.6028 110° East 442 509 30,400 1,770 Climbing Seattle Center
18:46 45.1158 -121.4344 110° East 452 520 32,100 1,983 Climbing Seattle Center
18:47 45.0606 -121.2261 111° Southeast 468 539 34,400 2,083 Climbing Seattle Center
18:48 45.0144 -121.0539 111° Southeast 470 541 36,300 1,770 Climbing Seattle Center
18:49 44.9689 -120.8828 111° Southeast 468 539 38,000 1,475 Climbing Seattle Center
18:50 44.9233 -120.7133 111° Southeast 463 533 39,300 1,190 Climbing Seattle Center
18:51 44.8778 -120.5431 111° Southeast 466 536 40,400 843 Climbing Seattle Center
18:52 44.8314 -120.3742 111° Southeast 467 537 41,000 295 Climbing Seattle Center
18:53 44.7850 -120.2056 111° Southeast 468 539 41,000  Level Seattle Center
18:54 44.7392 -120.0389 111° Southeast 467 537 41,000  Level Seattle Center
18:55 44.6925 -119.8714 111° Southeast 468 539 41,000  Level Seattle Center
18:56 44.6472 -119.7036 111° Southeast 466 536 41,000  Level Seattle Center
18:57 44.5878 -119.5017 112° Southeast 469 540 41,000  Level Seattle Center
18:58 44.5383 -119.3336 112° Southeast 469 540 41,000  Level Seattle Center
18:59 44.4892 -119.1658 112° Southeast 468 539 41,000  Level Seattle Center
19:00 44.4400 -118.9983 112° Southeast 468 539 41,000  Level Seattle Center
19:01 44.3872 -118.8303 114° Southeast 473 544 41,000  Level Seattle Center
19:02 44.3367 -118.6606 113° Southeast 474 545 41,000  Level Seattle Center
19:03 44.2856 -118.4897 113° Southeast 478 550 41,000  Level Seattle Center
19:04 44.2331 -118.3206 113° Southeast 477 549 41,000  Level Seattle Center
19:05 44.1744 -118.1303 113° Southeast 479 551 41,000  Level Seattle Center
19:06 44.1233 -117.9689 114° Southeast 478 550 41,000  Level Seattle Center
19:07 44.0744 -117.8075 113° Southeast 476 548 41,000  Level Seattle Center
19:07 44.0544 -117.7528 117° Southeast 475 547 41,000  Level Salt Lake Center
19:08 44.0044 -117.5933 114° Southeast 473 544 41,000  Level Salt Lake Center
19:09 43.9458 -117.4083 114° Southeast 471 542 41,000  Level Salt Lake Center
19:10 43.8956 -117.2500 114° Southeast 471 542 41,000  Level Salt Lake Center
19:11 43.8453 -117.0925 114° Southeast 470 541 41,000  Level Salt Lake Center
19:12 43.7875 -116.9122 114° Southeast 460 529 41,000  Level Salt Lake Center
19:13 43.7389 -116.7611 114° Southeast 450 518 41,000  Level Salt Lake Center
19:14 43.6814 -116.5847 114° Southeast 451 519 41,000  Level Salt Lake Center
19:15 43.6319 -116.4353 115° Southeast 451 519 41,000  Level Salt Lake Center
19:16 43.5828 -116.2850 114° Southeast 451 519 41,000 49 Level Salt Lake Center
19:17 43.5208 -116.1111 116° Southeast 453 521 41,100  Climbing Salt Lake Center
19:18 43.4617 -115.9661 119° Southeast 456 525 41,000 -49 Descending Salt Lake Center
19:19 43.3928 -115.7956 119° Southeast 458 527 41,000  Level Salt Lake Center
19:20 43.3336 -115.6508 119° Southeast 456 525 41,000  Level Salt Lake Center
19:22 43.2736 -115.5061 120° Southeast 456 525 41,000  Level Salt Lake Center
19:23 43.2050 -115.3364 119° Southeast 456 525 41,000  Level Salt Lake Center
19:24 43.1447 -115.1942 120° Southeast 454 522 41,000  Level Salt Lake Center
19:25 43.0756 -115.0261 119° Southeast 453 521 41,000  Level Salt Lake Center
19:26 43.0156 -114.8833 120° Southeast 453 521 41,000  Level Salt Lake Center
19:27 42.9561 -114.7411 120° Southeast 452 520 41,000  Level Salt Lake Center
19:28 42.8861 -114.5739 120° Southeast 455 524 41,000  Level Salt Lake Center
19:29 42.8242 -114.4297 120° Southeast 459 528 41,000  Level Salt Lake Center
19:30 42.7600 -114.2792 120° Southeast 461 531 41,000  Level Salt Lake Center
19:31 42.6944 -114.1294 121° Southeast 462 532 41,000 -634 Level Salt Lake Center
19:32 42.6314 -113.9786 120° Southeast 458 527 39,700 -1,805 Descending Salt Lake Center
19:33 42.5622 -113.8378 124° Southeast 449 517 37,300 -2,902 Descending Salt Lake Center
19:34 42.4511 -113.6911 136° Southeast 464 534 33,800 -3,148 Descending Salt Lake Center
19:35 42.3572 -113.5672 136° Southeast 471 542 30,900 -2,341 Descending Salt Lake Center
19:36 42.2658 -113.4450 135° Southeast 466 536 29,000 -927 Descending Salt Lake Center
19:37 42.1756 -113.3250 135° Southeast 458 527 29,000  Level Salt Lake Center
19:38 42.0828 -113.2050 136° Southeast 463 533 29,000  Level Salt Lake Center
19:39 41.9917 -113.0842 135° Southeast 462 532 29,000 -1,024 Level Salt Lake Center
19:40 41.9011 -112.9658 136° Southeast 458 527 26,900 -2,146 Descending Salt Lake Center
19:41 41.8136 -112.8511 136° Southeast 443 510 24,600 -2,262 Descending Salt Lake Center
19:42 41.7292 -112.7431 136° Southeast 427 491 22,300 -2,213 Descending Salt Lake Center
19:43 41.6458 -112.6389 137° Southeast 413 475 20,100 -2,244 Descending Salt Lake Center
19:44 41.5542 -112.5200 136° Southeast 381 438 17,700 -1,512 Descending Salt Lake Center
19:45 41.4728 -112.4361 142° Southeast 373 429 17,000 -541 Descending Salt Lake Center
19:46 41.3819 -112.3731 152° Southeast 369 425 16,600 -1,279 Descending Salt Lake Center
19:47 41.2944 -112.3100 152° Southeast 360 414 14,400 -1,770 Descending Salt Lake Center
19:48 41.2092 -112.2483 151° Southeast 351 404 13,000 -683 Descending Salt Lake Center
19:49 41.1286 -112.1869 150° Southeast 338 389 13,000  Level Salt Lake Center
19:50 41.0789 -112.1508 151° Southeast 343 395 13,000  Level Salt Lake Center
19:50 41.0428 -112.1375 164° South 345 397 13,000 -645 Level Salt Lake Center
19:51 40.9508 -112.1197 172° South 338 389 12,000 -1,348 Descending Salt Lake Center
19:52 40.8942 -112.1083 171° South 335 386 11,000 -1,377 Descending Salt Lake Center
19:52 40.8450 -112.1008 173° South 320 368 10,600 -1,091 Descending Salt Lake Center
19:52 40.8164 -112.0950 171° South 306 352 10,000 -1,574 Descending Salt Lake Center
19:53 40.7647 -112.0797 167° South 297 342 9,000 -1,200 Descending Salt Lake Center
19:53 40.7372 -112.0764 175° South 294 338 8,800 -197 Descending Salt Lake Center
19:54 40.6908 -112.0600 165° South 270 311 8,800 -98 Level Salt Lake Center
19:55 40.6706 -112.0425 147° Southeast 231 266 8,700 -387 Descending Salt Lake Center
19:55 40.6525 -112.0089 125° Southeast 197 227 8,400 -1,075 Descending Salt Lake Center
19:56 40.6642 -111.9881 54° Northeast 164 189 7,500 -1,672 Descending Salt Lake Center
19:56 40.6867 -111.9844 North 157 181 6,700 -1,667 Descending Salt Lake Center
19:57 40.7031 -111.9892 348° North 155 178 6,000 -1,475 Descending Salt Lake Center
19:57 40.7289 -111.9897 359° North 152 175 5,200 -1,180 Descending Salt Lake Center
19:58 40.7450 -111.9947 347° North 147 169 4,800 -787 Descending Salt Lake Center
19:58 40.7675 -111.9942 North 140 161 4,400 -571 Descending Salt Lake Center
20:00 40.7833 -111.9667 North  Level FlightAware Approximate
20:07 40.7884 -111.9778 North  Level Estimated

Login

Don't have an account? Register now (free) for customized features, flight alerts, and more!